createdAt,value
2023-05-18T00:01:23.890Z,5.00
2023-05-18T00:03:54.354Z,4.90
2023-05-18T00:06:22.794Z,4.80
2023-05-18T00:08:49.811Z,4.80
2023-05-18T00:11:17.389Z,4.80
2023-05-18T00:13:44.397Z,4.80
2023-05-18T00:16:13.831Z,4.80
2023-05-18T00:18:41.287Z,4.80
2023-05-18T00:21:09.666Z,4.80
2023-05-18T00:23:39.598Z,4.70
2023-05-18T00:26:06.689Z,4.70
2023-05-18T00:28:33.785Z,4.70
2023-05-18T00:31:00.913Z,4.70
2023-05-18T00:33:28.079Z,4.70
2023-05-18T00:35:57.542Z,4.70
2023-05-18T00:38:24.888Z,4.70
2023-05-18T00:40:51.878Z,4.70
2023-05-18T00:43:19.465Z,4.60
2023-05-18T00:45:46.599Z,4.50
2023-05-18T00:48:13.687Z,4.50
2023-05-18T00:50:41.398Z,4.50
2023-05-18T00:53:10.798Z,4.40
2023-05-18T00:55:38.073Z,4.40
2023-05-18T00:58:06.057Z,4.40
2023-05-18T01:00:34.138Z,4.30
2023-05-18T01:03:02.436Z,4.30
2023-05-18T01:05:29.926Z,4.30
2023-05-18T01:07:58.403Z,4.30
2023-05-18T01:10:25.720Z,4.30
2023-05-18T01:13:07.119Z,4.20
2023-05-18T01:15:39.438Z,4.20
2023-05-18T01:18:26.394Z,4.20
2023-05-18T01:21:00.814Z,4.20
2023-05-18T01:23:53.218Z,4.10
2023-05-18T01:26:31.849Z,4.10
2023-05-18T01:29:05.861Z,4.10
2023-05-18T01:31:33.757Z,4.10
2023-05-18T01:34:02.088Z,4.10
2023-05-18T01:36:29.168Z,4.00
2023-05-18T01:38:57.612Z,4.00
2023-05-18T01:41:26.917Z,4.00
2023-05-18T01:43:59.626Z,4.00
2023-05-18T01:46:35.325Z,4.00
2023-05-18T01:49:22.554Z,3.90
2023-05-18T01:51:52.131Z,3.90
2023-05-18T01:54:20.637Z,3.90
2023-05-18T01:56:49.011Z,3.90
2023-05-18T01:59:17.081Z,3.80
2023-05-18T02:01:45.515Z,3.80
2023-05-18T02:04:12.704Z,3.80
2023-05-18T02:06:40.061Z,3.80
2023-05-18T02:09:07.359Z,3.90
2023-05-18T02:11:34.621Z,3.90
2023-05-18T02:14:01.698Z,3.90
2023-05-18T02:16:28.741Z,3.80
2023-05-18T02:18:56.898Z,3.70
2023-05-18T02:21:24.140Z,3.60
2023-05-18T02:23:51.215Z,3.60
2023-05-18T02:26:18.192Z,3.50
2023-05-18T02:28:45.193Z,3.50
2023-05-18T02:31:12.812Z,3.40
2023-05-18T02:33:41.008Z,3.30
2023-05-18T02:36:10.071Z,3.30
2023-05-18T02:38:42.503Z,3.30
2023-05-18T02:41:10.664Z,3.30
2023-05-18T02:43:37.627Z,3.30
2023-05-18T02:46:05.482Z,3.20
2023-05-18T02:48:33.349Z,3.20
2023-05-18T02:51:00.813Z,3.20
2023-05-18T02:53:28.419Z,3.20
2023-05-18T02:55:58.875Z,3.20
2023-05-18T02:58:26.191Z,3.20
2023-05-18T03:01:00.541Z,3.20
2023-05-18T03:03:27.570Z,3.20
2023-05-18T03:05:55.599Z,3.20
2023-05-18T03:08:27.270Z,3.10
2023-05-18T03:10:54.874Z,3.20
2023-05-18T03:13:21.957Z,3.20
2023-05-18T03:15:49.569Z,3.20
2023-05-18T03:18:19.384Z,3.30
2023-05-18T03:20:46.816Z,3.30
2023-05-18T03:23:13.854Z,3.30
2023-05-18T03:25:40.831Z,3.30
2023-05-18T03:28:08.057Z,3.30
2023-05-18T03:30:35.458Z,3.20
2023-05-18T03:33:03.780Z,3.20
2023-05-18T03:35:31.313Z,3.30
2023-05-18T03:37:58.426Z,3.30
2023-05-18T03:40:25.656Z,3.30
2023-05-18T03:42:52.590Z,3.30
2023-05-18T03:45:19.636Z,3.40
2023-05-18T03:47:46.902Z,3.50
2023-05-18T03:50:13.986Z,3.60
2023-05-18T03:52:44.700Z,3.60
2023-05-18T03:55:12.436Z,3.60
2023-05-18T03:57:40.454Z,3.60
2023-05-18T04:00:12.256Z,3.60
2023-05-18T04:02:40.075Z,3.60
2023-05-18T04:05:08.096Z,3.70
2023-05-18T04:07:44.411Z,3.60
2023-05-18T04:10:13.256Z,3.70
2023-05-18T04:12:41.008Z,3.80
2023-05-18T04:15:08.974Z,3.80
2023-05-18T04:17:36.081Z,3.80
2023-05-18T04:20:11.742Z,3.90
2023-05-18T04:22:48.664Z,3.90
2023-05-18T04:25:16.367Z,4.00
2023-05-18T04:27:45.820Z,4.00
2023-05-18T04:30:13.769Z,4.00
2023-05-18T04:32:43.373Z,4.10
2023-05-18T04:35:11.846Z,4.10
2023-05-18T04:37:43.093Z,4.10
2023-05-18T04:40:13.605Z,4.20
2023-05-18T04:42:48.700Z,4.40
2023-05-18T04:45:17.938Z,4.50
2023-05-18T04:47:47.421Z,4.60
2023-05-18T04:50:16.316Z,4.60
2023-05-18T04:52:51.086Z,4.80
2023-05-18T04:55:28.419Z,4.80
2023-05-18T04:57:57.065Z,4.90
2023-05-18T05:00:29.415Z,5.00
2023-05-18T05:02:57.911Z,5.00
2023-05-18T05:05:26.316Z,5.30
2023-05-18T05:07:54.117Z,5.30
2023-05-18T05:10:21.425Z,5.50
2023-05-18T05:12:49.983Z,5.70
2023-05-18T05:15:18.278Z,6.00
2023-05-18T05:17:47.179Z,6.10
2023-05-18T05:20:18.607Z,6.20
2023-05-18T05:22:45.956Z,6.30
2023-05-18T05:25:13.074Z,6.30
2023-05-18T05:27:40.458Z,6.40
2023-05-18T05:30:08.093Z,6.50
2023-05-18T05:32:36.326Z,6.50
2023-05-18T05:35:04.521Z,6.60
2023-05-18T05:37:31.609Z,6.70
2023-05-18T05:39:59.485Z,6.70
2023-05-18T05:42:26.941Z,6.80
2023-05-18T05:44:53.959Z,6.80
2023-05-18T05:47:21.001Z,6.90
2023-05-18T05:49:48.098Z,6.90
2023-05-18T05:52:15.314Z,7.10
2023-05-18T05:54:42.390Z,7.10
2023-05-18T05:57:09.595Z,7.10
2023-05-18T05:59:36.492Z,7.20
2023-05-18T06:02:04.088Z,7.10
2023-05-18T06:04:31.289Z,7.20
2023-05-18T06:06:58.359Z,7.20
2023-05-18T06:09:25.327Z,7.20
2023-05-18T06:11:53.048Z,7.30
2023-05-18T06:14:20.181Z,7.30
2023-05-18T06:16:47.914Z,7.40
2023-05-18T06:19:15.150Z,7.40
2023-05-18T06:21:42.301Z,7.50
2023-05-18T06:24:09.816Z,7.50
2023-05-18T06:26:36.995Z,7.60
2023-05-18T06:29:04.336Z,7.70
2023-05-18T06:31:31.524Z,7.70
2023-05-18T06:33:58.701Z,7.70
2023-05-18T06:36:25.708Z,7.80
2023-05-18T06:38:53.168Z,7.80
2023-05-18T06:41:21.117Z,7.80
2023-05-18T06:43:48.341Z,7.80
2023-05-18T06:46:26.844Z,7.80
2023-05-18T06:48:54.255Z,7.70
2023-05-18T06:51:21.617Z,7.70
2023-05-18T06:53:49.171Z,7.80
2023-05-18T06:56:17.013Z,7.90
2023-05-18T06:58:44.451Z,7.90
2023-05-18T07:01:12.858Z,8.00
2023-05-18T07:03:40.270Z,8.10
2023-05-18T07:06:07.632Z,8.20
2023-05-18T07:08:37.545Z,8.30
2023-05-18T07:11:05.686Z,8.20
2023-05-18T07:13:32.971Z,8.30
2023-05-18T07:16:00.166Z,8.40
2023-05-18T07:18:27.332Z,8.50
2023-05-18T07:20:54.364Z,8.60
2023-05-18T07:23:21.514Z,8.60
2023-05-18T07:25:49.259Z,8.50
2023-05-18T07:28:16.641Z,8.60
2023-05-18T07:30:44.086Z,8.60
2023-05-18T07:33:11.234Z,8.70
2023-05-18T07:35:38.444Z,8.70
2023-05-18T07:38:05.480Z,8.80
2023-05-18T07:40:32.438Z,8.80
2023-05-18T07:42:59.593Z,8.80
2023-05-18T07:45:27.115Z,8.90
2023-05-18T07:47:54.580Z,8.90
2023-05-18T07:50:21.927Z,9.00
2023-05-18T07:52:48.877Z,9.10
2023-05-18T07:55:16.629Z,9.10
2023-05-18T07:57:44.051Z,9.10
2023-05-18T08:00:12.262Z,9.20
2023-05-18T08:02:39.951Z,9.40
2023-05-18T08:05:08.218Z,9.40
2023-05-18T08:07:35.688Z,9.40
2023-05-18T08:10:02.960Z,9.40
2023-05-18T08:12:33.072Z,9.40
2023-05-18T08:15:00.298Z,9.40
2023-05-18T08:17:27.545Z,9.50
2023-05-18T08:19:55.446Z,9.50
2023-05-18T08:22:22.468Z,9.60
2023-05-18T08:24:49.443Z,9.70
2023-05-18T08:27:16.434Z,9.80
2023-05-18T08:29:43.990Z,9.90
2023-05-18T08:32:11.327Z,10.10
2023-05-18T08:34:38.391Z,10.10
2023-05-18T08:37:05.844Z,10.00
2023-05-18T08:39:33.030Z,10.00
2023-05-18T08:42:06.955Z,10.00
2023-05-18T08:44:47.382Z,10.00
2023-05-18T08:47:15.431Z,10.20
2023-05-18T08:49:43.224Z,10.10
2023-05-18T08:52:15.936Z,10.00
2023-05-18T08:54:43.035Z,10.20
2023-05-18T08:57:11.376Z,10.40
2023-05-18T08:59:42.412Z,10.50
2023-05-18T09:02:10.474Z,10.50
2023-05-18T09:04:38.977Z,10.60
2023-05-18T09:07:07.376Z,10.70
2023-05-18T09:09:35.802Z,10.60
2023-05-18T09:12:03.609Z,10.50
2023-05-18T09:14:32.606Z,10.60
2023-05-18T09:16:59.687Z,10.60
2023-05-18T09:19:26.948Z,10.70
2023-05-18T09:21:53.967Z,10.80
2023-05-18T09:24:24.386Z,11.00
2023-05-18T09:26:52.066Z,11.20
2023-05-18T09:29:24.376Z,11.30
2023-05-18T09:31:53.650Z,11.20
2023-05-18T09:34:21.333Z,11.20
2023-05-18T09:36:57.864Z,11.20
2023-05-18T09:39:24.932Z,11.20
2023-05-18T09:41:58.345Z,11.20
2023-05-18T09:44:33.891Z,11.50
2023-05-18T09:47:02.146Z,11.60
2023-05-18T09:49:31.974Z,11.60
2023-05-18T09:52:01.870Z,11.60
2023-05-18T09:54:29.258Z,11.90
2023-05-18T09:57:09.706Z,11.90
2023-05-18T09:59:38.173Z,11.80
2023-05-18T10:02:06.200Z,11.80
2023-05-18T10:04:44.182Z,12.00
2023-05-18T10:07:13.133Z,12.00
2023-05-18T10:09:46.096Z,12.00
2023-05-18T10:12:13.748Z,12.00
2023-05-18T10:14:43.201Z,12.00
2023-05-18T10:17:16.404Z,12.10
2023-05-18T10:19:45.001Z,12.10
2023-05-18T10:22:16.001Z,12.20
2023-05-18T10:24:45.319Z,12.20
2023-05-18T10:27:16.771Z,12.30
2023-05-18T10:29:45.164Z,12.40
2023-05-18T10:32:13.443Z,12.70
2023-05-18T10:34:42.029Z,12.80
2023-05-18T10:37:12.185Z,12.70
2023-05-18T10:39:42.549Z,12.80
2023-05-18T10:42:10.639Z,13.10
2023-05-18T10:44:39.615Z,13.10
2023-05-18T10:47:08.458Z,13.00
2023-05-18T10:49:36.823Z,13.00
2023-05-18T10:52:04.268Z,12.90
2023-05-18T10:54:31.522Z,13.10
2023-05-18T10:56:59.063Z,13.10
2023-05-18T10:59:27.807Z,13.40
2023-05-18T11:01:56.232Z,13.50
2023-05-18T11:04:27.179Z,13.30
2023-05-18T11:06:59.483Z,13.50
2023-05-18T11:09:26.876Z,13.60
2023-05-18T11:11:57.796Z,13.60
2023-05-18T11:14:32.747Z,13.70
2023-05-18T11:17:19.961Z,13.90
2023-05-18T11:20:13.092Z,13.90
2023-05-18T11:22:46.234Z,13.90
2023-05-18T11:25:28.117Z,13.90
2023-05-18T11:28:05.732Z,13.80
2023-05-18T11:30:36.558Z,13.90
2023-05-18T11:33:14.236Z,14.00
2023-05-18T11:36:04.101Z,14.00
2023-05-18T11:38:52.619Z,13.70
2023-05-18T11:41:44.786Z,13.80
2023-05-18T11:44:21.212Z,13.80
2023-05-18T11:47:02.396Z,13.90
2023-05-18T11:49:49.193Z,13.90
2023-05-18T11:52:21.370Z,13.80
2023-05-18T11:54:56.434Z,13.80
2023-05-18T11:57:27.439Z,14.00
2023-05-18T11:59:58.802Z,14.10
2023-05-18T12:02:35.658Z,14.20
2023-05-18T12:05:08.616Z,14.20
2023-05-18T12:07:36.619Z,14.20
2023-05-18T12:10:17.267Z,14.30
2023-05-18T12:12:47.897Z,14.30
2023-05-18T12:15:17.003Z,14.20
2023-05-18T12:17:46.593Z,14.10
2023-05-18T12:20:16.011Z,14.20
2023-05-18T12:22:50.360Z,14.20
2023-05-18T12:25:17.727Z,14.10
2023-05-18T12:27:49.794Z,14.30
2023-05-18T12:30:24.129Z,14.50
2023-05-18T12:32:53.266Z,14.50
2023-05-18T12:35:25.042Z,14.40
2023-05-18T12:37:52.632Z,14.40
2023-05-18T12:40:20.768Z,14.40
2023-05-18T12:42:59.551Z,14.40
2023-05-18T12:45:28.643Z,14.40
2023-05-18T12:47:56.437Z,14.40
2023-05-18T12:50:28.548Z,14.60
2023-05-18T12:52:56.759Z,14.70
2023-05-18T12:55:25.492Z,14.80
2023-05-18T12:58:04.016Z,14.80
2023-05-18T13:00:38.035Z,14.70
2023-05-18T13:03:11.842Z,14.80
2023-05-18T13:05:42.814Z,14.80
2023-05-18T13:08:13.962Z,14.90
2023-05-18T13:10:44.329Z,14.90
2023-05-18T13:13:15.081Z,15.00
2023-05-18T13:15:44.062Z,15.00
2023-05-18T13:18:12.191Z,15.10
2023-05-18T13:20:51.513Z,15.10
2023-05-18T13:23:30.150Z,15.00
2023-05-18T13:25:58.969Z,15.00
2023-05-18T13:28:27.415Z,15.00
2023-05-18T13:30:54.738Z,15.00
2023-05-18T13:33:22.102Z,15.20
2023-05-18T13:35:50.016Z,15.30
2023-05-18T13:38:17.320Z,15.20
2023-05-18T13:40:45.793Z,15.10
2023-05-18T13:43:13.979Z,15.00
2023-05-18T13:45:41.807Z,15.10
2023-05-18T13:48:10.682Z,15.00
2023-05-18T13:50:39.695Z,15.10
2023-05-18T13:53:07.175Z,15.20
2023-05-18T13:55:34.573Z,15.20
2023-05-18T13:58:01.506Z,15.20
2023-05-18T14:00:29.156Z,15.30
2023-05-18T14:02:56.890Z,15.40
2023-05-18T14:05:24.436Z,15.50
2023-05-18T14:07:55.107Z,15.50
2023-05-18T14:10:22.881Z,15.50
2023-05-18T14:12:49.999Z,15.50
2023-05-18T14:15:17.297Z,15.60
2023-05-18T14:17:44.758Z,15.60
2023-05-18T14:20:12.548Z,15.70
2023-05-18T14:22:40.236Z,15.50
2023-05-18T14:25:07.725Z,15.50
2023-05-18T14:27:34.886Z,15.60
2023-05-18T14:30:01.923Z,15.70
2023-05-18T14:32:29.126Z,15.60
2023-05-18T14:34:58.194Z,15.70
2023-05-18T14:37:25.734Z,15.90
2023-05-18T14:39:52.874Z,16.00
2023-05-18T14:42:19.944Z,16.10
2023-05-18T14:44:47.314Z,16.30
2023-05-18T14:47:14.468Z,16.30
2023-05-18T14:49:41.533Z,16.40
2023-05-18T14:52:08.522Z,16.40
2023-05-18T14:54:35.520Z,16.40
2023-05-18T14:57:02.521Z,16.40
2023-05-18T14:59:29.630Z,16.50
2023-05-18T15:01:56.705Z,16.60
2023-05-18T15:04:25.164Z,16.70
2023-05-18T15:06:52.478Z,16.70
2023-05-18T15:09:19.466Z,16.70
2023-05-18T15:11:46.737Z,16.70
2023-05-18T15:14:13.835Z,16.70
2023-05-18T15:16:41.135Z,16.60
2023-05-18T15:19:08.304Z,16.70
2023-05-18T15:21:35.391Z,16.80
2023-05-18T15:24:02.607Z,16.90
2023-05-18T15:26:29.622Z,17.00
2023-05-18T15:28:56.594Z,17.10
2023-05-18T15:31:23.745Z,17.20
2023-05-18T15:33:50.901Z,17.20
2023-05-18T15:36:18.003Z,17.30
2023-05-18T15:38:45.605Z,17.40
2023-05-18T15:41:12.766Z,17.50
2023-05-18T15:43:41.344Z,17.50
2023-05-18T15:46:08.361Z,17.70
2023-05-18T15:48:35.715Z,17.80
2023-05-18T15:51:02.715Z,17.70
2023-05-18T15:53:29.896Z,17.50
2023-05-18T15:55:59.295Z,17.60
2023-05-18T15:58:26.969Z,17.70
2023-05-18T16:00:54.330Z,17.50
2023-05-18T16:03:21.466Z,17.30
2023-05-18T16:05:48.734Z,16.90
2023-05-18T16:08:16.145Z,17.00
2023-05-18T16:10:43.149Z,17.00
2023-05-18T16:13:10.159Z,16.80
2023-05-18T16:15:37.319Z,16.80
2023-05-18T16:18:04.646Z,16.80
2023-05-18T16:20:32.205Z,16.60
2023-05-18T16:22:59.846Z,16.50
2023-05-18T16:25:26.956Z,16.40
2023-05-18T16:27:54.136Z,16.30
2023-05-18T16:30:22.022Z,16.10
2023-05-18T16:32:49.351Z,16.10
2023-05-18T16:35:17.092Z,15.90
2023-05-18T16:37:44.167Z,15.80
2023-05-18T16:40:11.747Z,15.70
2023-05-18T16:42:38.923Z,15.70
2023-05-18T16:45:06.583Z,15.60
2023-05-18T16:47:33.857Z,15.50
2023-05-18T16:50:01.412Z,15.40
2023-05-18T16:52:32.766Z,15.30
2023-05-18T16:55:00.140Z,15.10
2023-05-18T16:57:27.669Z,15.00
2023-05-18T16:59:54.794Z,14.70
2023-05-18T17:02:21.935Z,14.30
2023-05-18T17:04:50.766Z,14.20
2023-05-18T17:07:18.046Z,14.20
2023-05-18T17:09:45.062Z,14.10
2023-05-18T17:12:12.928Z,14.20
2023-05-18T17:14:40.205Z,14.10
2023-05-18T17:17:07.845Z,14.00
2023-05-18T17:19:35.422Z,14.00
2023-05-18T17:22:03.697Z,14.00
2023-05-18T17:24:31.447Z,14.00
2023-05-18T17:26:59.231Z,14.00
2023-05-18T17:29:27.319Z,13.90
2023-05-18T17:31:54.675Z,13.90
2023-05-18T17:34:22.288Z,13.90
2023-05-18T17:36:49.754Z,13.80
2023-05-18T17:39:16.802Z,13.80
2023-05-18T17:41:44.418Z,13.80
2023-05-18T17:44:14.602Z,13.70
2023-05-18T17:46:42.169Z,13.70
2023-05-18T17:49:09.376Z,13.60
2023-05-18T17:51:36.765Z,13.50
2023-05-18T17:54:04.457Z,13.40
2023-05-18T17:56:31.926Z,13.40
2023-05-18T17:59:00.477Z,13.40
2023-05-18T18:01:29.093Z,13.40
2023-05-18T18:03:57.632Z,13.40
2023-05-18T18:06:25.347Z,13.40
2023-05-18T18:08:57.724Z,13.40
2023-05-18T18:11:26.333Z,13.30
2023-05-18T18:13:53.726Z,13.20
2023-05-18T18:16:21.983Z,13.10
2023-05-18T18:18:49.522Z,13.10
2023-05-18T18:21:16.765Z,13.10
2023-05-18T18:23:43.826Z,13.00
2023-05-18T18:26:11.245Z,13.00
2023-05-18T18:28:38.251Z,12.90
2023-05-18T18:31:05.482Z,12.90
2023-05-18T18:33:33.124Z,12.80
2023-05-18T18:36:00.598Z,12.80
2023-05-18T18:38:28.975Z,12.70
2023-05-18T18:41:01.832Z,12.70
2023-05-18T18:43:29.357Z,12.60
2023-05-18T18:45:59.573Z,12.60
2023-05-18T18:48:26.990Z,12.50
2023-05-18T18:50:54.678Z,12.50
2023-05-18T18:53:21.724Z,12.50
2023-05-18T18:55:48.755Z,12.40
2023-05-18T18:58:16.014Z,12.40
2023-05-18T19:00:43.383Z,12.30
2023-05-18T19:03:10.636Z,12.20
2023-05-18T19:05:37.947Z,12.20
2023-05-18T19:08:05.303Z,12.20
2023-05-18T19:10:34.284Z,12.10
2023-05-18T19:13:05.753Z,12.10
2023-05-18T19:15:34.623Z,12.10
2023-05-18T19:18:02.047Z,12.00
2023-05-18T19:20:29.180Z,12.00
2023-05-18T19:22:56.342Z,12.00
2023-05-18T19:25:26.498Z,11.90
2023-05-18T19:27:54.133Z,11.90
2023-05-18T19:30:22.525Z,11.80
2023-05-18T19:32:51.162Z,11.80
2023-05-18T19:35:20.070Z,11.70
2023-05-18T19:37:47.632Z,11.70
2023-05-18T19:40:15.309Z,11.60
2023-05-18T19:42:42.301Z,11.60
2023-05-18T19:45:09.504Z,11.50
2023-05-18T19:47:36.793Z,11.50
2023-05-18T19:50:04.710Z,11.50
2023-05-18T19:52:33.721Z,11.40
2023-05-18T19:55:02.169Z,11.30
2023-05-18T19:57:29.579Z,11.20
2023-05-18T19:59:56.515Z,11.20
2023-05-18T20:02:23.504Z,11.10
2023-05-18T20:04:51.369Z,11.10
2023-05-18T20:07:18.376Z,11.00
2023-05-18T20:09:45.694Z,11.00
2023-05-18T20:12:12.681Z,11.00
2023-05-18T20:14:39.607Z,10.90
2023-05-18T20:17:06.921Z,10.90
2023-05-18T20:19:33.921Z,10.80
2023-05-18T20:22:01.010Z,10.80
2023-05-18T20:24:28.083Z,10.70
2023-05-18T20:26:55.862Z,10.70
2023-05-18T20:29:22.810Z,10.70
2023-05-18T20:31:50.599Z,10.60
2023-05-18T20:34:17.715Z,10.60
2023-05-18T20:36:44.803Z,10.60
2023-05-18T20:39:11.969Z,10.60
2023-05-18T20:41:40.438Z,10.60
2023-05-18T20:44:10.699Z,10.60
2023-05-18T20:46:38.517Z,10.60
2023-05-18T20:49:05.996Z,10.50
2023-05-18T20:51:33.165Z,10.50
2023-05-18T20:54:00.206Z,10.50
2023-05-18T20:56:29.602Z,10.50
2023-05-18T20:58:57.056Z,10.40
2023-05-18T21:01:24.128Z,10.40
2023-05-18T21:03:51.183Z,10.40
2023-05-18T21:06:18.194Z,10.40
2023-05-18T21:08:45.703Z,10.40
2023-05-18T21:11:12.698Z,10.40
2023-05-18T21:13:39.734Z,10.30
2023-05-18T21:16:08.562Z,10.30
2023-05-18T21:18:36.123Z,10.30
2023-05-18T21:21:03.637Z,10.20
2023-05-18T21:23:30.842Z,10.20
2023-05-18T21:25:58.206Z,10.20
2023-05-18T21:28:25.421Z,10.20
2023-05-18T21:30:54.482Z,10.10
2023-05-18T21:33:22.296Z,10.10
2023-05-18T21:35:49.602Z,10.00
2023-05-18T21:38:17.382Z,10.00
2023-05-18T21:40:44.500Z,10.00
2023-05-18T21:43:12.696Z,10.00
2023-05-18T21:45:39.727Z,9.90
2023-05-18T21:48:06.973Z,9.90
2023-05-18T21:50:36.974Z,9.90
2023-05-18T21:53:04.233Z,9.90
2023-05-18T21:55:34.210Z,9.90
2023-05-18T21:58:01.432Z,9.80
2023-05-18T22:00:28.695Z,9.80
2023-05-18T22:02:55.839Z,9.80
2023-05-18T22:05:23.093Z,9.80
2023-05-18T22:07:50.430Z,9.70
2023-05-18T22:10:18.323Z,9.70
2023-05-18T22:12:45.698Z,9.60
2023-05-18T22:15:13.318Z,9.50
2023-05-18T22:17:40.702Z,9.50
2023-05-18T22:20:11.713Z,9.50
2023-05-18T22:22:40.524Z,9.40
2023-05-18T22:25:08.048Z,9.40
2023-05-18T22:27:36.927Z,9.40
2023-05-18T22:30:06.424Z,9.30
2023-05-18T22:32:33.648Z,9.30
2023-05-18T22:35:01.819Z,9.30
2023-05-18T22:37:28.815Z,9.30
2023-05-18T22:39:56.103Z,9.20
2023-05-18T22:42:23.075Z,9.20
2023-05-18T22:44:50.508Z,9.20
2023-05-18T22:47:20.173Z,9.10
2023-05-18T22:49:47.771Z,9.10
2023-05-18T22:52:16.484Z,9.00
2023-05-18T22:54:43.759Z,9.00
2023-05-18T22:57:10.745Z,8.90
2023-05-18T22:59:37.764Z,8.90
2023-05-18T23:02:05.601Z,8.80
2023-05-18T23:04:34.014Z,8.80
2023-05-18T23:07:01.939Z,8.70
2023-05-18T23:09:30.777Z,8.60
2023-05-18T23:11:59.649Z,8.50
2023-05-18T23:14:32.767Z,8.50
2023-05-18T23:17:02.867Z,8.50
2023-05-18T23:19:29.899Z,8.40
2023-05-18T23:21:57.110Z,8.40
2023-05-18T23:24:24.161Z,8.30
2023-05-18T23:26:51.364Z,8.30
2023-05-18T23:29:18.409Z,8.20
2023-05-18T23:31:45.633Z,8.10
2023-05-18T23:34:12.983Z,8.10
2023-05-18T23:36:42.850Z,8.10
2023-05-18T23:39:10.624Z,8.00
2023-05-18T23:41:39.326Z,8.00
2023-05-18T23:44:07.013Z,7.90
2023-05-18T23:46:34.876Z,7.90
2023-05-18T23:49:02.214Z,7.90
2023-05-18T23:51:33.223Z,7.80
2023-05-18T23:54:03.055Z,7.80
2023-05-18T23:56:30.843Z,7.70
2023-05-18T23:58:58.674Z,7.70
